Taylor Fork

This weather station provides wind speed, gust or max wind speed, and wind direction at 9460 ft. near Pika Point above Sunlight Basin.  

This data can be used with temperature and precipitation data from the Carrot Basin SNOTEL site. If the data below is not displayed or up to date, view data here.

This weather station was purchased by the Friends of the Avalanche Center.

Elevation
9460ft
Jump to table bottom
Date Time Temperature
deg F
RH, % Wind Speed Wind Gust Wind Direction
03/02/21 22:00 17.0 74 15 23 S - 180
03/02/21 21:00 17.7 72 16 27 S - 159
03/02/21 20:00 18.4 70 19 31 SE - 154
03/02/21 19:00 17.7 72 21 29 S - 166
03/02/21 18:00 19.8 67 20 28 SE - 157
03/02/21 17:00 22.2 61 17 31 SE - 147
03/02/21 16:00 23.9 61 18 29 S - 174
03/02/21 15:00 24.7 61 18 28 S - 191
03/02/21 14:00 23.0 68 16 29 S - 175
03/02/21 13:00 21.7 74 16 24 SE - 153
03/02/21 12:00 19.6 77 15 24 S - 170
03/02/21 11:00 17.7 78 16 24 SE - 157
03/02/21 10:00 17.2 78 15 20 S - 161
03/02/21 09:00 15.4 81 15 20 SE - 152
03/02/21 08:00 14.4 83 11 19 S - 170
03/02/21 07:00 19.5 68 9 13 SW - 223
03/02/21 06:00 18.5 70 11 23 SW - 236
03/02/21 05:00 20.8 65 17 25 SW - 218
03/02/21 04:00 15.0 83 16 22 S - 194
03/02/21 03:00 15.2 83 15 23 S - 197
03/02/21 02:00 15.4 83 22 30 S - 187
03/02/21 01:00 15.5 83 21 29 S - 188
03/02/21 00:00 14.8 86 21 31 S - 184
03/01/21 23:00 14.8 87 23 29 S - 178
03/01/21 22:00 15.3 86 22 31 S - 181
03/01/21 21:00 17.4 80 21 27 S - 188
03/01/21 20:00 15.0 87 20 26 S - 190
03/01/21 19:00 15.9 87 22 30 S - 173
03/01/21 18:00 20.3 76 20 30 S - 194
03/01/21 17:00 23.1 71 19 30 S - 195
03/01/21 16:00 23.0 75 20 33 SW - 205
03/01/21 15:00 23.6 75 23 35 SW - 205
03/01/21 14:00 17.4 92 22 28 S - 175
03/01/21 13:00 15.1 92 11 24 SW - 204
03/01/21 12:00 16.3 92 13 18 S - 187
03/01/21 11:00 11.8 91 13 21 S - 187
03/01/21 10:00 10.0 91 14 19 S - 171
03/01/21 09:00 10.7 90 16 21 S - 167
03/01/21 08:00 7.3 90 10 14 S - 166
03/01/21 07:00 17.5 94 8 11 S - 175
03/01/21 06:00 8.0 90 12 15 S - 163
03/01/21 05:00 8.4 90 15 18 SE - 157
03/01/21 04:00 8.6 91 16 21 S - 161
03/01/21 03:00 7.9 90 16 21 S - 161
03/01/21 02:00 7.1 90 17 24 SE - 150
03/01/21 01:00 6.4 90 16 19 SE - 149
03/01/21 00:00 6.2 90 15 21 SE - 157
02/28/21 23:00 8.2 90 14 19 S - 171
02/28/21 22:00 6.9 90 13 19 S - 197
02/28/21 21:00 10.0 91 11 14 SW - 204